Time;durP1;ratioP1;P1;durP2;ratioP2;P2;SDS_P1;SDS_P2;PMS_P1;PMS_P2;Temp;Humidity;BMP_temperature;BMP_pressure;BME280_temperature;BME280_humidity;BME280_pressure;Samples;Min_cycle;Max_cycle;Signal;HPM_P1;HPM_P2
2021/10/10 00:02:16;;;;;;;10.80;7.87;;;8.60;99.90;;;;;;5025627;28;20560;-39
2021/10/10 00:04:41;;;;;;;10.93;8.73;;;8.80;99.90;;;;;;5020400;28;20206;-39
2021/10/10 00:07:07;;;;;;;9.30;8.30;;;8.80;99.90;;;;;;5029064;28;20569;-39
2021/10/10 00:09:32;;;;;;;13.97;8.50;;;8.50;99.90;;;;;;5029116;28;20180;-39
2021/10/10 00:11:58;;;;;;;9.67;8.67;;;8.30;99.90;;;;;;5029101;28;20190;-41
2021/10/10 00:14:24;;;;;;;10.63;9.10;;;8.20;99.90;;;;;;5028445;28;20198;-38
2021/10/10 00:16:50;;;;;;;12.17;9.27;;;8.30;99.90;;;;;;5028224;28;20273;-38
2021/10/10 00:19:15;;;;;;;10.13;8.10;;;8.40;99.90;;;;;;5022038;28;20257;-38
2021/10/10 00:21:41;;;;;;;11.63;9.40;;;8.40;99.90;;;;;;5028833;28;20186;-39
2021/10/10 00:24:07;;;;;;;11.23;9.57;;;8.30;99.90;;;;;;5028696;28;20202;-38
2021/10/10 00:26:32;;;;;;;13.53;10.40;;;8.00;99.90;;;;;;5028448;28;20742;-39
2021/10/10 00:28:58;;;;;;;13.57;11.63;;;8.00;99.90;;;;;;5028889;28;20669;-38
2021/10/10 00:31:24;;;;;;;15.60;12.03;;;8.00;99.90;;;;;;5028579;28;20269;-39
2021/10/10 00:33:49;;;;;;;13.70;11.53;;;8.10;99.90;;;;;;5021080;28;20589;-39
2021/10/10 00:36:15;;;;;;;16.50;11.70;;;7.90;99.90;;;;;;5028208;28;20202;-39
2021/10/10 00:38:42;;;;;;;16.80;12.43;;;7.80;99.90;;;;;;5028702;28;20198;-39
2021/10/10 00:41:08;;;;;;;15.23;13.00;;;8.00;99.90;;;;;;5028656;28;20256;-40
2021/10/10 00:43:33;;;;;;;17.20;12.40;;;8.00;99.90;;;;;;5027777;28;20425;-39
2021/10/10 00:45:59;;;;;;;15.73;12.80;;;7.90;99.90;;;;;;5026796;28;20465;-39
2021/10/10 00:48:25;;;;;;;16.37;11.90;;;7.60;99.90;;;;;;5016956;28;20495;-39
2021/10/10 00:50:50;;;;;;;13.10;11.70;;;7.70;99.90;;;;;;5028067;28;20213;-39
2021/10/10 00:53:17;;;;;;;16.43;11.27;;;7.90;99.90;;;;;;5027598;28;20697;-42
2021/10/10 00:55:50;;;;;;;12.40;10.57;;;7.80;99.90;;;;;;5028185;28;20197;-38
2021/10/10 00:58:20;;;;;;;14.80;11.70;;;7.80;99.90;;;;;;5028729;28;20441;-38
2021/10/10 01:00:46;;;;;;;11.90;10.53;;;7.70;99.90;;;;;;5028110;28;20504;-38
2021/10/10 01:03:12;;;;;;;11.00;9.63;;;7.70;99.90;;;;;;5017736;28;20912;-39
2021/10/10 01:05:37;;;;;;;12.83;10.50;;;7.90;99.90;;;;;;5027737;28;20553;-38
2021/10/10 01:08:04;;;;;;;12.53;10.43;;;7.60;99.90;;;;;;5026776;28;20268;-38
2021/10/10 01:10:29;;;;;;;12.13;9.77;;;7.80;99.90;;;;;;5028113;28;20307;-38
2021/10/10 01:12:55;;;;;;;14.10;10.20;;;7.90;99.90;;;;;;5027239;28;21123;-38
2021/10/10 01:15:21;;;;;;;14.30;10.10;;;7.60;99.90;;;;;;5027904;28;20248;-39
2021/10/10 01:17:49;;;;;;;13.10;10.10;;;7.60;99.90;;;;;;5022955;28;20429;-41
2021/10/10 01:20:18;;;;;;;15.10;10.77;;;7.50;99.90;;;;;;5022596;28;20186;-38
2021/10/10 01:22:44;;;;;;;12.60;9.53;;;7.40;99.90;;;;;;5027316;28;20687;-38
2021/10/10 01:25:09;;;;;;;14.20;11.23;;;7.50;99.90;;;;;;5027681;28;20826;-38
2021/10/10 01:27:35;;;;;;;14.70;10.87;;;7.70;99.90;;;;;;5026485;28;20218;-38
2021/10/10 01:30:01;;;;;;;12.30;10.10;;;7.60;99.90;;;;;;5027882;28;20187;-38
2021/10/10 01:32:27;;;;;;;15.03;11.97;;;7.50;99.90;;;;;;5025775;28;20187;-38
2021/10/10 01:34:52;;;;;;;14.13;11.47;;;7.60;99.90;;;;;;5015390;28;20684;-38
2021/10/10 01:37:18;;;;;;;18.17;12.40;;;7.50;99.90;;;;;;5027411;28;20198;-38
2021/10/10 01:39:44;;;;;;;13.63;11.60;;;7.40;99.90;;;;;;5027432;28;20198;-38
2021/10/10 01:42:10;;;;;;;14.00;11.77;;;7.40;99.90;;;;;;5027580;28;20247;-38
2021/10/10 01:44:35;;;;;;;17.50;11.43;;;7.50;99.90;;;;;;5026296;28;20444;-39
2021/10/10 01:47:01;;;;;;;14.03;11.50;;;7.60;99.90;;;;;;5026310;28;20553;-39
2021/10/10 01:49:27;;;;;;;14.53;11.30;;;7.70;99.90;;;;;;5017133;28;20680;-40
2021/10/10 01:51:53;;;;;;;16.07;11.83;;;7.60;99.90;;;;;;5027182;28;20417;-38
2021/10/10 01:54:19;;;;;;;14.20;11.10;;;7.70;99.90;;;;;;5026687;28;20285;-38
2021/10/10 01:56:44;;;;;;;14.70;11.37;;;7.40;99.90;;;;;;5026677;28;20599;-39
2021/10/10 01:59:10;;;;;;;16.73;11.40;;;7.50;99.90;;;;;;5027165;28;20829;-38
2021/10/10 02:01:36;;;;;;;13.83;10.80;;;7.40;99.90;;;;;;5027254;28;20685;-38
2021/10/10 02:04:01;;;;;;;12.23;11.03;;;7.50;99.90;;;;;;5022108;28;20577;-38
2021/10/10 02:06:27;;;;;;;13.90;11.40;;;7.40;99.90;;;;;;5025306;28;20478;-38
2021/10/10 02:08:53;;;;;;;13.60;10.40;;;7.20;99.90;;;;;;5026640;28;20186;-38
2021/10/10 02:11:18;;;;;;;12.50;10.47;;;7.40;99.90;;;;;;5027369;28;20201;-38
2021/10/10 02:13:44;;;;;;;15.10;10.17;;;7.30;99.90;;;;;;5025796;28;20505;-39
2021/10/10 02:16:11;;;;;;;14.00;9.63;;;7.30;99.90;;;;;;5027009;28;20230;-38
2021/10/10 02:18:36;;;;;;;15.97;11.37;;;7.20;99.90;;;;;;5023605;28;20217;-38
2021/10/10 02:21:03;;;;;;;11.67;10.23;;;7.20;99.90;;;;;;5022529;28;20425;-38
2021/10/10 02:23:28;;;;;;;15.60;11.47;;;7.10;99.90;;;;;;5026283;28;20220;-39
2021/10/10 02:25:54;;;;;;;11.53;9.27;;;7.10;99.90;;;;;;5026694;28;20480;-38
2021/10/10 02:28:20;;;;;;;11.77;9.97;;;7.40;99.90;;;;;;5026538;28;20614;-38
2021/10/10 02:30:47;;;;;;;12.47;10.57;;;7.20;99.90;;;;;;5026668;28;20221;-38
2021/10/10 02:33:13;;;;;;;14.23;9.53;;;7.10;99.90;;;;;;5021567;28;20179;-38
2021/10/10 02:35:39;;;;;;;14.50;10.73;;;7.00;99.90;;;;;;5019161;28;20688;-38
2021/10/10 02:38:05;;;;;;;14.63;10.13;;;7.00;99.90;;;;;;5026399;28;20434;-38
2021/10/10 02:40:31;;;;;;;11.87;9.43;;;7.20;99.90;;;;;;5026668;28;20616;-38
2021/10/10 02:42:56;;;;;;;14.13;9.73;;;7.10;99.90;;;;;;5025350;28;20460;-38
2021/10/10 02:45:22;;;;;;;12.57;10.33;;;7.00;99.90;;;;;;5026226;28;20224;-39
2021/10/10 02:47:48;;;;;;;11.00;9.83;;;7.00;99.90;;;;;;5024910;28;20672;-39
2021/10/10 02:50:13;;;;;;;13.97;10.30;;;6.90;99.90;;;;;;5016456;28;20239;-38
2021/10/10 02:52:39;;;;;;;19.67;11.93;;;7.00;99.90;;;;;;5025757;28;20209;-38
2021/10/10 02:55:05;;;;;;;17.90;11.53;;;7.30;99.90;;;;;;5025695;28;20190;-38
2021/10/10 02:57:31;;;;;;;20.00;13.60;;;7.30;99.90;;;;;;5024183;28;20289;-38
2021/10/10 02:59:57;;;;;;;14.63;11.03;;;7.30;99.90;;;;;;5026242;28;21008;-38
2021/10/10 03:02:22;;;;;;;14.70;11.40;;;7.20;99.90;;;;;;5025871;28;20193;-38
2021/10/10 03:04:48;;;;;;;13.50;11.30;;;7.10;99.90;;;;;;5017192;28;20314;-38
2021/10/10 03:07:13;;;;;;;18.33;12.60;;;7.20;99.90;;;;;;5025954;28;20312;-38
2021/10/10 03:09:39;;;;;;;15.90;11.90;;;7.50;99.90;;;;;;5025361;28;20196;-38
2021/10/10 03:12:05;;;;;;;15.03;11.60;;;7.20;99.90;;;;;;5025389;28;20183;-38
2021/10/10 03:14:30;;;;;;;16.57;11.10;;;7.30;99.90;;;;;;5025517;28;20218;-38
2021/10/10 03:16:56;;;;;;;16.97;12.63;;;7.30;99.90;;;;;;5025702;28;20704;-39
2021/10/10 03:19:22;;;;;;;15.17;12.13;;;7.30;99.90;;;;;;5014490;28;20195;-39
2021/10/10 03:21:47;;;;;;;16.60;11.60;;;7.20;99.90;;;;;;5028408;28;20196;-39
2021/10/10 03:24:13;;;;;;;16.47;12.40;;;7.00;99.90;;;;;;5024890;28;20186;-38
2021/10/10 03:26:38;;;;;;;15.53;11.10;;;7.30;99.90;;;;;;5025197;28;20345;-38
2021/10/10 03:29:04;;;;;;;15.50;11.73;;;7.20;99.90;;;;;;5025635;28;20182;-38
2021/10/10 03:31:30;;;;;;;15.87;11.50;;;7.30;99.90;;;;;;5025912;28;20193;-38
2021/10/10 03:33:56;;;;;;;12.60;11.00;;;7.30;99.90;;;;;;5023560;28;20191;-38
2021/10/10 03:36:22;;;;;;;14.53;11.40;;;7.20;99.90;;;;;;5018615;28;20229;-38
2021/10/10 03:38:48;;;;;;;13.47;11.30;;;7.20;99.90;;;;;;5025289;28;20422;-38
2021/10/10 03:41:14;;;;;;;13.80;11.50;;;7.20;99.90;;;;;;5025278;28;20816;-38
2021/10/10 03:43:39;;;;;;;18.73;11.10;;;7.30;99.90;;;;;;5024959;28;20198;-38
2021/10/10 03:46:05;;;;;;;15.67;11.30;;;7.40;99.90;;;;;;5025703;28;20221;-38
2021/10/10 03:48:31;;;;;;;13.17;11.20;;;7.50;99.90;;;;;;5022683;28;20195;-38
2021/10/10 03:50:57;;;;;;;19.10;13.00;;;7.40;99.90;;;;;;5015335;28;20187;-38
2021/10/10 03:53:31;;;;;;;14.10;10.87;;;7.30;99.90;;;;;;5024614;28;20273;-38
2021/10/10 03:55:57;;;;;;;13.20;10.50;;;7.20;99.90;;;;;;5025107;28;20276;-38
2021/10/10 03:58:22;;;;;;;15.23;11.40;;;7.30;99.90;;;;;;5025255;28;20977;-40
2021/10/10 04:00:49;;;;;;;14.40;10.33;;;7.40;99.90;;;;;;5025543;28;20266;-38
2021/10/10 04:03:16;;;;;;;12.93;10.33;;;7.20;99.90;;;;;;5024538;28;20705;-38
2021/10/10 04:05:44;;;;;;;17.80;11.87;;;7.30;99.90;;;;;;5015276;28;20480;-38
2021/10/10 04:08:10;;;;;;;14.70;10.87;;;7.20;99.90;;;;;;5025065;28;20472;-38
2021/10/10 04:10:36;;;;;;;13.57;10.30;;;7.20;99.90;;;;;;5025440;28;20924;-38
2021/10/10 04:13:02;;;;;;;13.73;10.70;;;7.30;99.90;;;;;;5024786;28;20182;-38
2021/10/10 04:15:28;;;;;;;14.47;10.50;;;7.20;99.90;;;;;;5025212;28;20661;-38
2021/10/10 04:17:54;;;;;;;14.50;10.37;;;7.20;99.90;;;;;;5025642;28;20447;-38
2021/10/10 04:20:20;;;;;;;15.00;10.93;;;7.40;99.90;;;;;;5021489;28;20434;-38
2021/10/10 04:22:46;;;;;;;14.33;10.87;;;7.30;99.90;;;;;;5028277;28;20547;-38
2021/10/10 04:25:13;;;;;;;11.93;9.73;;;7.40;99.90;;;;;;5028474;28;20215;-38
2021/10/10 04:27:39;;;;;;;15.33;10.80;;;7.50;99.90;;;;;;5028876;28;20428;-38
2021/10/10 04:30:14;;;;;;;13.80;10.00;;;7.20;99.90;;;;;;5028908;28;20420;-38
2021/10/10 04:32:40;;;;;;;12.00;10.00;;;7.30;99.90;;;;;;5028793;28;20418;-38
2021/10/10 04:35:06;;;;;;;13.30;9.17;;;7.40;99.90;;;;;;5020266;28;20441;-38
2021/10/10 04:37:32;;;;;;;14.20;9.57;;;7.50;99.90;;;;;;5027779;28;20578;-38
2021/10/10 04:39:58;;;;;;;13.07;9.80;;;7.50;99.90;;;;;;5028425;28;20587;-38
2021/10/10 04:42:23;;;;;;;11.93;9.47;;;7.70;99.90;;;;;;5027262;28;20326;-38
2021/10/10 04:44:49;;;;;;;10.87;9.00;;;7.80;99.90;;;;;;5027951;28;20218;-38
2021/10/10 04:47:15;;;;;;;13.40;9.80;;;7.60;99.90;;;;;;5026985;28;20275;-38
2021/10/10 04:49:40;;;;;;;9.77;8.77;;;7.90;99.90;;;;;;5021605;28;20611;-38
2021/10/10 04:52:06;;;;;;;12.53;9.63;;;8.00;99.90;;;;;;5023654;28;20273;-38
2021/10/10 04:54:35;;;;;;;14.43;9.57;;;8.00;99.90;;;;;;5027826;28;20221;-38
2021/10/10 04:57:01;;;;;;;12.87;9.50;;;8.00;99.90;;;;;;5028163;28;20587;-38
2021/10/10 04:59:26;;;;;;;15.37;9.70;;;7.80;99.90;;;;;;5028425;28;20424;-38
2021/10/10 05:01:52;;;;;;;13.73;9.47;;;7.90;99.90;;;;;;5027944;28;20294;-38
2021/10/10 05:04:18;;;;;;;14.03;9.43;;;7.90;99.90;;;;;;5024996;28;20741;-38
2021/10/10 05:06:44;;;;;;;12.30;8.77;;;7.90;99.90;;;;;;5022844;28;20237;-38
2021/10/10 05:09:09;;;;;;;12.20;8.57;;;8.10;99.90;;;;;;5028233;28;20186;-38
2021/10/10 05:11:35;;;;;;;11.73;8.83;;;8.00;99.90;;;;;;5028116;28;20791;-38
2021/10/10 05:14:01;;;;;;;11.60;9.87;;;8.00;99.90;;;;;;5027917;28;20548;-37
2021/10/10 05:16:26;;;;;;;14.77;9.50;;;7.90;99.90;;;;;;5028030;28;20571;-37
2021/10/10 05:18:52;;;;;;;10.83;9.13;;;8.10;99.90;;;;;;5027960;28;20257;-38
2021/10/10 05:21:17;;;;;;;11.47;9.30;;;8.10;99.90;;;;;;5021197;28;20276;-38
2021/10/10 05:23:43;;;;;;;12.43;9.00;;;8.10;99.90;;;;;;5027153;28;20198;-38
2021/10/10 05:26:10;;;;;;;12.50;9.50;;;8.00;99.90;;;;;;5027715;28;20581;-39
2021/10/10 05:28:36;;;;;;;11.50;9.77;;;8.20;99.90;;;;;;5027737;28;20263;-38
2021/10/10 05:31:01;;;;;;;13.80;9.33;;;8.10;99.90;;;;;;5027724;28;20912;-37
2021/10/10 05:33:27;;;;;;;10.60;8.87;;;8.10;99.90;;;;;;5026174;28;20415;-38
2021/10/10 05:35:53;;;;;;;16.83;8.63;;;8.10;99.90;;;;;;5018482;28;20649;-38
2021/10/10 05:38:18;;;;;;;13.37;9.07;;;8.10;99.90;;;;;;5027816;28;20191;-38
2021/10/10 05:40:44;;;;;;;14.80;9.10;;;8.40;99.90;;;;;;5027778;28;20782;-38
2021/10/10 05:43:10;;;;;;;11.77;9.70;;;8.20;99.90;;;;;;5026841;28;20268;-38
2021/10/10 05:45:35;;;;;;;11.40;10.00;;;8.30;99.90;;;;;;5027549;28;20241;-38
2021/10/10 05:48:01;;;;;;;11.97;8.53;;;8.20;99.90;;;;;;5025568;28;20194;-38
2021/10/10 05:50:27;;;;;;;10.70;8.60;;;8.10;99.90;;;;;;5016527;28;20236;-37
2021/10/10 05:52:52;;;;;;;10.23;8.27;;;8.30;99.90;;;;;;5026759;28;20213;-38
2021/10/10 05:55:22;;;;;;;11.00;8.90;;;8.30;99.90;;;;;;5027387;28;20292;-38
2021/10/10 05:57:50;;;;;;;13.23;8.53;;;8.00;99.90;;;;;;5027022;28;20308;-38
2021/10/10 06:00:17;;;;;;;10.73;8.70;;;8.00;99.90;;;;;;5027442;28;20433;-38
2021/10/10 06:02:47;;;;;;;12.40;8.57;;;8.00;99.90;;;;;;5026513;28;20508;-38
2021/10/10 06:05:15;;;;;;;10.67;8.53;;;8.00;99.90;;;;;;5020649;28;20457;-38
2021/10/10 06:07:40;;;;;;;12.20;8.53;;;7.90;99.90;;;;;;5018644;28;20995;-38
2021/10/10 06:10:07;;;;;;;10.60;9.13;;;8.10;99.90;;;;;;5025346;28;20522;-38
2021/10/10 06:12:35;;;;;;;13.37;9.77;;;8.00;99.90;;;;;;5027110;28;20214;-37
2021/10/10 06:15:03;;;;;;;10.17;9.00;;;8.10;99.90;;;;;;5026377;28;20524;-38
2021/10/10 06:17:30;;;;;;;11.00;8.60;;;8.20;99.90;;;;;;5026467;28;20623;-38
2021/10/10 06:19:56;;;;;;;12.83;8.73;;;8.10;99.90;;;;;;5021158;28;20820;-38
2021/10/10 06:22:22;;;;;;;11.60;8.03;;;8.20;99.90;;;;;;5018760;28;20437;-38
2021/10/10 06:24:47;;;;;;;9.40;7.90;;;8.30;99.90;;;;;;5025798;28;20260;-38
2021/10/10 06:27:15;;;;;;;11.90;8.60;;;7.90;99.90;;;;;;5025502;28;20182;-38
2021/10/10 06:29:40;;;;;;;10.17;8.20;;;7.80;99.90;;;;;;5026481;28;20221;-38
2021/10/10 06:32:06;;;;;;;11.80;9.43;;;7.60;99.90;;;;;;5026222;28;20604;-38
2021/10/10 06:34:32;;;;;;;10.50;7.87;;;7.70;99.90;;;;;;5025887;28;20225;-38
2021/10/10 06:36:57;;;;;;;11.97;9.23;;;7.60;99.90;;;;;;5019671;28;20263;-39
2021/10/10 06:39:23;;;;;;;9.63;8.63;;;7.60;99.90;;;;;;5024663;28;20195;-38
2021/10/10 06:41:50;;;;;;;11.53;8.20;;;7.70;99.90;;;;;;5026837;28;20214;-38
2021/10/10 06:44:17;;;;;;;11.80;10.00;;;7.60;99.90;;;;;;5025516;28;20202;-38
2021/10/10 06:46:44;;;;;;;11.50;8.70;;;7.90;99.90;;;;;;5024120;28;20468;-38
2021/10/10 06:49:10;;;;;;;13.00;8.80;;;8.00;99.90;;;;;;5026328;28;20433;-38
2021/10/10 06:51:36;;;;;;;12.83;8.40;;;8.20;99.90;;;;;;5016640;28;20924;-38
2021/10/10 06:54:02;;;;;;;9.63;8.30;;;8.40;99.90;;;;;;5025281;28;20460;-38
2021/10/10 06:56:27;;;;;;;11.87;8.53;;;8.70;99.90;;;;;;5025897;28;20210;-38
2021/10/10 06:58:53;;;;;;;10.63;8.80;;;8.70;99.90;;;;;;5025996;28;20194;-38
2021/10/10 07:01:18;;;;;;;12.10;9.17;;;8.80;99.90;;;;;;5025616;28;20259;-38
2021/10/10 07:03:44;;;;;;;10.37;8.30;;;8.80;99.90;;;;;;5025539;28;20277;-38
2021/10/10 07:06:10;;;;;;;10.27;9.03;;;8.80;99.90;;;;;;5016584;28;20332;-39
2021/10/10 07:08:35;;;;;;;9.83;8.70;;;9.00;99.90;;;;;;5025376;28;20179;-38
2021/10/10 07:11:01;;;;;;;13.23;8.60;;;8.80;99.90;;;;;;5025892;28;20190;-38
2021/10/10 07:13:27;;;;;;;10.50;9.10;;;8.90;99.90;;;;;;5025596;28;20190;-38
2021/10/10 07:15:55;;;;;;;11.90;9.43;;;9.20;99.90;;;;;;5025540;28;20676;-38
2021/10/10 07:18:27;;;;;;;13.73;9.40;;;9.30;99.90;;;;;;5025811;28;20191;-38
2021/10/10 07:25:57;;;;;;;12.77;9.87;;;9.90;99.90;;;;;;5025731;28;20464;-38
2021/10/10 07:28:23;;;;;;;11.87;9.90;;;10.20;99.90;;;;;;5025217;28;20191;-38
2021/10/10 07:30:49;;;;;;;14.97;9.87;;;10.40;99.90;;;;;;5025939;28;20436;-38
2021/10/10 07:33:15;;;;;;;12.60;9.80;;;10.70;99.90;;;;;;5024729;28;20194;-38
2021/10/10 07:35:41;;;;;;;12.17;9.13;;;11.00;99.90;;;;;;5018236;28;20442;-38
2021/10/10 07:38:07;;;;;;;13.50;8.83;;;11.40;99.90;;;;;;5023087;28;20432;-39
2021/10/10 07:40:33;;;;;;;15.87;9.63;;;11.70;99.90;;;;;;5025668;28;20186;-38
2021/10/10 07:42:58;;;;;;;12.20;8.80;;;12.00;99.90;;;;;;5024921;28;20195;-38
2021/10/10 07:45:25;;;;;;;15.83;9.10;;;12.30;99.90;;;;;;5025771;28;20468;-39
2021/10/10 07:47:51;;;;;;;10.13;8.13;;;12.60;99.90;;;;;;5024076;28;20216;-39
2021/10/10 07:50:19;;;;;;;9.07;8.10;;;12.80;99.90;;;;;;5023972;28;20421;-38
2021/10/10 07:52:45;;;;;;;11.70;8.67;;;13.00;99.90;;;;;;5018583;28;20417;-38
2021/10/10 07:55:11;;;;;;;10.90;8.43;;;13.10;99.90;;;;;;5026710;28;20788;-38
2021/10/10 07:57:37;;;;;;;11.77;8.53;;;13.20;99.90;;;;;;5029382;28;20518;-38
2021/10/10 08:00:05;;;;;;;13.00;8.87;;;13.50;99.90;;;;;;5029642;28;20432;-40
2021/10/10 08:02:31;;;;;;;11.17;8.30;;;13.70;99.90;;;;;;5029097;28;20950;-38
2021/10/10 08:04:58;;;;;;;9.93;8.10;;;14.00;99.90;;;;;;5028691;28;20492;-38
2021/10/10 08:07:23;;;;;;;13.33;8.60;;;14.30;99.90;;;;;;5020384;28;20540;-39
2021/10/10 08:09:49;;;;;;;12.50;9.13;;;14.40;99.90;;;;;;5029427;28;20429;-39
2021/10/10 08:12:15;;;;;;;10.60;8.40;;;14.40;99.90;;;;;;5028945;28;20192;-38
2021/10/10 08:14:40;;;;;;;12.73;7.30;;;14.50;99.90;;;;;;5028564;28;20423;-39
2021/10/10 08:17:06;;;;;;;9.10;7.80;;;14.70;99.90;;;;;;5028920;28;20198;-39
2021/10/10 08:19:32;;;;;;;11.80;8.20;;;14.80;99.90;;;;;;5029226;28;20277;-39
2021/10/10 08:21:58;;;;;;;11.77;8.77;;;14.90;99.90;;;;;;5020571;28;20199;-39
2021/10/10 08:24:23;;;;;;;10.60;8.83;;;15.10;99.90;;;;;;5026079;28;20206;-38
2021/10/10 08:26:49;;;;;;;9.90;7.97;;;15.30;99.90;;;;;;5028545;28;20483;-39
2021/10/10 08:29:16;;;;;;;10.47;8.10;;;15.40;99.90;;;;;;5028529;28;20248;-39
2021/10/10 08:31:43;;;;;;;9.53;8.13;;;15.40;99.90;;;;;;5029268;28;20453;-39
2021/10/10 08:34:09;;;;;;;9.10;7.77;;;15.60;99.90;;;;;;5027921;28;20483;-39
2021/10/10 08:36:34;;;;;;;9.63;8.30;;;15.80;99.90;;;;;;5019900;28;20448;-39
2021/10/10 08:39:00;;;;;;;12.53;8.00;;;15.80;99.90;;;;;;5023626;28;20484;-39
2021/10/10 08:41:32;;;;;;;9.60;7.90;;;15.80;99.90;;;;;;5028415;28;20213;-40
2021/10/10 08:44:02;;;;;;;9.93;8.27;;;15.90;99.90;;;;;;5028250;28;20265;-39
2021/10/10 08:46:29;;;;;;;13.93;8.20;;;16.10;99.90;;;;;;5026923;28;20496;-39
2021/10/10 08:48:54;;;;;;;9.20;7.60;;;16.20;99.90;;;;;;5029050;28;20432;-39
2021/10/10 08:51:20;;;;;;;9.20;8.30;;;16.30;99.40;;;;;;5021451;28;20437;-39
2021/10/10 08:53:47;;;;;;;9.03;8.13;;;16.40;99.90;;;;;;5021995;28;20639;-39
2021/10/10 08:56:13;;;;;;;9.33;8.10;;;16.50;99.20;;;;;;5028214;28;20472;-39
2021/10/10 08:58:43;;;;;;;10.57;8.13;;;16.50;99.10;;;;;;5028469;28;20484;-42
2021/10/10 09:01:17;;;;;;;10.10;8.87;;;16.50;99.10;;;;;;5028421;28;20421;-42
2021/10/10 09:03:49;;;;;;;10.43;8.10;;;16.50;99.30;;;;;;5027611;28;20914;-39
2021/10/10 09:06:16;;;;;;;12.70;8.00;;;16.70;99.60;;;;;;5021434;28;20462;-39
2021/10/10 09:08:42;;;;;;;9.70;8.33;;;16.80;99.80;;;;;;5023228;28;20448;-40
2021/10/10 09:11:09;;;;;;;10.40;8.53;;;16.90;99.20;;;;;;5028034;28;20520;-39
2021/10/10 09:13:41;;;;;;;9.33;8.43;;;17.10;99.20;;;;;;5027497;28;20563;-39
2021/10/10 09:16:08;;;;;;;10.70;8.50;;;17.10;98.40;;;;;;5028078;28;20457;-40
2021/10/10 09:18:39;;;;;;;12.83;8.40;;;17.10;98.70;;;;;;5028539;28;20811;-39
2021/10/10 09:21:26;;;;;;;14.23;8.33;;;17.20;98.60;;;;;;5024175;28;20449;-39
2021/10/10 09:23:53;;;;;;;9.23;7.63;;;17.20;98.20;;;;;;5024743;28;20508;-39
2021/10/10 09:26:20;;;;;;;11.53;7.93;;;17.20;98.10;;;;;;5027559;28;20568;-39
2021/10/10 09:28:47;;;;;;;12.80;7.83;;;17.30;98.40;;;;;;5027880;28;20916;-39
2021/10/10 09:31:13;;;;;;;13.13;8.37;;;17.40;97.50;;;;;;5027618;28;20425;-39
2021/10/10 09:33:52;;;;;;;10.70;8.23;;;17.30;98.50;;;;;;5027453;28;20413;-40
2021/10/10 09:36:21;;;;;;;10.20;8.43;;;17.40;98.60;;;;;;5023338;28;20437;-39
2021/10/10 09:38:58;;;;;;;9.70;8.03;;;17.30;98.00;;;;;;5020465;28;20422;-40
2021/10/10 09:44:05;;;;;;;9.17;7.87;;;17.10;99.70;;;;;;5025384;28;20513;-39
2021/10/10 09:46:31;;;;;;;9.83;8.80;;;17.10;99.20;;;;;;5026266;28;20519;-39
2021/10/10 09:48:58;;;;;;;13.63;8.10;;;17.00;99.20;;;;;;5026388;28;20800;-39
2021/10/10 09:51:32;;;;;;;8.83;7.70;;;17.10;99.70;;;;;;5024290;28;20423;-39
2021/10/10 09:54:02;;;;;;;10.67;8.50;;;17.20;99.70;;;;;;5022636;28;20427;-40
2021/10/10 09:56:28;;;;;;;11.10;8.87;;;17.30;98.80;;;;;;5026912;28;20437;-40
2021/10/10 09:58:54;;;;;;;8.80;7.80;;;17.50;99.30;;;;;;5026845;28;20416;-39
2021/10/10 10:01:23;;;;;;;10.70;8.70;;;17.50;98.80;;;;;;5025883;28;20453;-39
2021/10/10 10:04:04;;;;;;;9.53;7.90;;;17.60;98.80;;;;;;5026409;28;20588;-41
2021/10/10 10:06:35;;;;;;;11.07;8.60;;;17.70;99.30;;;;;;5022291;28;21094;-39
2021/10/10 10:09:03;;;;;;;8.80;7.90;;;17.90;99.90;;;;;;5021679;28;20417;-39
2021/10/10 10:11:34;;;;;;;9.63;8.23;;;17.90;99.50;;;;;;5026730;28;20439;-40
2021/10/10 10:14:07;;;;;;;10.20;7.63;;;17.90;99.30;;;;;;5026209;28;20436;-39
2021/10/10 10:16:37;;;;;;;10.43;7.90;;;17.90;99.80;;;;;;5027020;28;20440;-39
2021/10/10 10:19:05;;;;;;;9.37;8.43;;;17.80;99.30;;;;;;5026206;28;20426;-40
2021/10/10 10:21:31;;;;;;;9.73;8.10;;;17.60;97.80;;;;;;5037273;28;20907;-40
2021/10/10 10:23:59;;;;;;;11.97;7.57;;;17.60;98.80;;;;;;5024624;28;20560;-39
2021/10/10 10:26:32;;;;;;;9.73;7.40;;;17.60;98.80;;;;;;5024541;28;20225;-40
2021/10/10 10:29:02;;;;;;;10.30;7.60;;;17.60;97.80;;;;;;5026652;28;20425;-41
2021/10/10 10:31:29;;;;;;;10.07;7.93;;;17.50;97.70;;;;;;5026604;28;20425;-39
2021/10/10 10:34:25;;;;;;;10.37;8.40;;;17.60;99.00;;;;;;5025579;28;20560;-41
2021/10/10 10:36:57;;;;;;;10.17;7.67;;;17.20;98.00;;;;;;5022418;28;20810;-40
2021/10/10 10:39:45;;;;;;;8.30;7.27;;;17.00;97.90;;;;;;5018316;28;20775;-39
2021/10/10 10:42:13;;;;;;;9.60;7.87;;;17.10;99.00;;;;;;5026116;28;20421;-40
2021/10/10 10:44:40;;;;;;;12.00;8.30;;;17.20;99.90;;;;;;5025944;28;20461;-40
2021/10/10 10:47:12;;;;;;;11.20;8.00;;;17.20;99.70;;;;;;5025658;28;20557;-39
2021/10/10 10:49:58;;;;;;;10.77;7.97;;;17.20;99.50;;;;;;5026157;28;20495;-39
2021/10/10 10:52:29;;;;;;;9.20;8.10;;;17.20;99.20;;;;;;5020709;28;20430;-40
2021/10/10 10:55:05;;;;;;;9.30;7.60;;;17.20;99.60;;;;;;5020322;28;20475;-39
2021/10/10 10:57:38;;;;;;;10.40;7.33;;;17.20;99.90;;;;;;5026304;28;20445;-39
2021/10/10 11:00:09;;;;;;;9.97;7.67;;;17.30;99.90;;;;;;5026134;28;20417;-39
2021/10/10 11:03:01;;;;;;;9.47;7.87;;;17.20;99.40;;;;;;5025918;28;20449;-39
2021/10/10 11:05:36;;;;;;;9.63;7.83;;;17.10;99.20;;;;;;5025684;28;20465;-39
2021/10/10 11:08:06;;;;;;;10.77;9.20;;;17.20;99.60;;;;;;5017469;28;20444;-40
2021/10/10 11:10:33;;;;;;;8.50;7.63;;;17.10;98.40;;;;;;5024643;28;20421;-41
2021/10/10 11:13:05;;;;;;;8.80;7.90;;;17.00;98.70;;;;;;5025666;28;20907;-40
2021/10/10 11:15:50;;;;;;;8.57;7.73;;;17.00;98.60;;;;;;5025764;28;20774;-39
2021/10/10 11:18:25;;;;;;;8.47;7.60;;;17.10;99.60;;;;;;5025818;28;20706;-40
2021/10/10 11:21:01;;;;;;;8.53;7.60;;;17.20;99.70;;;;;;5025893;28;20741;-40
2021/10/10 11:23:28;;;;;;;9.93;6.80;;;17.40;98.10;;;;;;5023565;28;20428;-40
2021/10/10 11:25:56;;;;;;;8.37;7.00;;;17.50;98.40;;;;;;5025578;28;20575;-39
2021/10/10 11:28:41;;;;;;;10.63;7.40;;;17.60;97.40;;;;;;5024722;28;20425;-40
2021/10/10 11:31:14;;;;;;;8.80;7.00;;;17.60;97.10;;;;;;5025074;28;20409;-42
2021/10/10 11:33:45;;;;;;;8.23;7.40;;;17.70;97.50;;;;;;5025383;28;20763;-45
2021/10/10 11:36:13;;;;;;;8.37;7.10;;;17.60;97.50;;;;;;5025266;28;20521;-40
2021/10/10 11:38:50;;;;;;;7.63;6.83;;;17.70;96.40;;;;;;5017226;28;20443;-42
2021/10/10 11:41:16;;;;;;;9.50;6.93;;;17.80;95.80;;;;;;5024062;28;20429;-39
2021/10/10 11:43:56;;;;;;;7.40;6.53;;;17.70;95.60;;;;;;5025308;28;20431;-39
2021/10/10 11:46:21;;;;;;;8.10;6.13;;;17.70;95.40;;;;;;5024743;28;20538;-40
2021/10/10 11:48:53;;;;;;;8.37;6.70;;;17.70;95.90;;;;;;5025182;28;20413;-39
2021/10/10 11:51:37;;;;;;;7.50;6.67;;;17.80;96.10;;;;;;5025763;28;20244;-42
2021/10/10 11:54:05;;;;;;;7.63;6.87;;;17.90;94.90;;;;;;5013836;28;20440;-40
2021/10/10 11:56:31;;;;;;;9.03;6.63;;;18.00;95.30;;;;;;5025318;28;20457;-40
2021/10/10 11:59:10;;;;;;;12.43;6.43;;;18.00;94.90;;;;;;5025513;28;20483;-39
2021/10/10 12:01:36;;;;;;;10.57;6.57;;;18.10;96.50;;;;;;5025646;28;20273;-39
2021/10/10 12:04:01;;;;;;;11.33;7.33;;;18.10;95.70;;;;;;5024721;28;20519;-41
2021/10/10 12:06:27;;;;;;;8.13;7.33;;;18.10;96.40;;;;;;5025372;28;20214;-39
2021/10/10 12:09:10;;;;;;;9.30;7.30;;;18.10;96.20;;;;;;5015474;28;20244;-41
2021/10/10 12:11:40;;;;;;;8.27;6.30;;;18.20;96.40;;;;;;5023814;28;20273;-39
2021/10/10 12:14:07;;;;;;;8.07;7.23;;;18.30;95.40;;;;;;5024591;28;20444;-39
2021/10/10 12:16:43;;;;;;;7.27;6.53;;;18.40;95.80;;;;;;5025260;28;20563;-39
2021/10/10 12:19:12;;;;;;;8.00;6.73;;;18.50;96.30;;;;;;5025238;28;20423;-39
2021/10/10 12:21:38;;;;;;;7.53;6.77;;;18.60;97.90;;;;;;5041949;28;20420;-41
2021/10/10 12:24:14;;;;;;;7.67;6.30;;;18.80;96.70;;;;;;5014630;28;20430;-40
2021/10/10 12:27:00;;;;;;;8.00;6.90;;;18.90;95.60;;;;;;5024882;28;21235;-40
2021/10/10 12:29:28;;;;;;;7.80;7.00;;;19.10;95.50;;;;;;5025263;28;20902;-40
2021/10/10 12:31:55;;;;;;;10.60;7.00;;;19.10;95.20;;;;;;5025704;28;20413;-39
2021/10/10 12:34:31;;;;;;;9.97;7.37;;;19.10;94.50;;;;;;5023154;28;21018;-40
2021/10/10 12:36:57;;;;;;;8.40;6.77;;;19.20;94.80;;;;;;5024340;28;20474;-40
2021/10/10 12:39:40;;;;;;;9.07;7.40;;;19.20;94.60;;;;;;5011882;28;20442;-40
2021/10/10 12:42:06;;;;;;;8.67;7.23;;;19.10;94.70;;;;;;5023014;28;20205;-39
2021/10/10 12:44:32;;;;;;;7.50;6.40;;;19.20;95.20;;;;;;5027968;28;20445;-40
2021/10/10 12:46:57;;;;;;;9.20;7.53;;;19.20;95.00;;;;;;5027695;28;20665;-40
2021/10/10 12:49:38;;;;;;;8.03;6.73;;;19.30;95.60;;;;;;5028170;28;20559;-42
2021/10/10 12:52:08;;;;;;;7.27;6.20;;;19.20;93.90;;;;;;5028859;28;20178;-41
2021/10/10 12:54:39;;;;;;;7.37;6.40;;;19.20;95.00;;;;;;5017267;28;20714;-39